sensor_id;sensor_type;location;lat;lon;timestamp;pressure;altitude;pressure_sealevel;temperature;humidity
40285;BME280;25997;50.214;19.354;2024-02-21T00:00:39;98433.56;;;6.67;57.72
40285;BME280;25997;50.214;19.354;2024-02-21T00:03:42;98426.50;;;6.64;57.64
40285;BME280;25997;50.214;19.354;2024-02-21T00:06:46;98430.81;;;6.64;57.71
40285;BME280;25997;50.214;19.354;2024-02-21T00:09:48;98436.84;;;6.63;57.71
40285;BME280;25997;50.214;19.354;2024-02-21T00:12:51;98426.91;;;6.73;57.58
40285;BME280;25997;50.214;19.354;2024-02-21T00:15:54;98428.72;;;6.74;57.51
40285;BME280;25997;50.214;19.354;2024-02-21T00:18:56;98421.16;;;6.80;57.38
40285;BME280;25997;50.214;19.354;2024-02-21T00:22:00;98412.03;;;6.71;57.32
40285;BME280;25997;50.214;19.354;2024-02-21T00:25:02;98414.19;;;6.62;57.41
40285;BME280;25997;50.214;19.354;2024-02-21T00:28:05;98413.38;;;6.63;57.27
40285;BME280;25997;50.214;19.354;2024-02-21T00:31:07;98408.97;;;6.62;57.42
40285;BME280;25997;50.214;19.354;2024-02-21T00:34:10;98412.28;;;6.58;57.37
40285;BME280;25997;50.214;19.354;2024-02-21T00:37:14;98406.91;;;6.55;57.58
40285;BME280;25997;50.214;19.354;2024-02-21T00:40:17;98402.38;;;6.51;57.59
40285;BME280;25997;50.214;19.354;2024-02-21T00:43:21;98398.69;;;6.47;57.49
40285;BME280;25997;50.214;19.354;2024-02-21T00:46:24;98404.75;;;6.46;57.54
40285;BME280;25997;50.214;19.354;2024-02-21T00:49:26;98399.00;;;6.35;57.77
40285;BME280;25997;50.214;19.354;2024-02-21T00:52:30;98393.59;;;6.31;58.03
40285;BME280;25997;50.214;19.354;2024-02-21T00:55:33;98392.97;;;6.19;58.39
40285;BME280;25997;50.214;19.354;2024-02-21T00:58:36;98381.41;;;6.14;58.75
40285;BME280;25997;50.214;19.354;2024-02-21T01:01:38;98380.50;;;6.13;58.59
40285;BME280;25997;50.214;19.354;2024-02-21T01:04:42;98380.66;;;5.99;59.22
40285;BME280;25997;50.214;19.354;2024-02-21T01:07:46;98371.28;;;6.02;58.94
40285;BME280;25997;50.214;19.354;2024-02-21T01:10:48;98375.63;;;6.02;59.06
40285;BME280;25997;50.214;19.354;2024-02-21T01:13:51;98370.63;;;6.06;58.85
40285;BME280;25997;50.214;19.354;2024-02-21T01:16:53;98375.00;;;6.07;58.91
40285;BME280;25997;50.214;19.354;2024-02-21T01:19:55;98375.28;;;6.13;58.73
40285;BME280;25997;50.214;19.354;2024-02-21T01:22:59;98372.34;;;6.06;58.95
40285;BME280;25997;50.214;19.354;2024-02-21T01:26:02;98376.06;;;6.11;58.81
40285;BME280;25997;50.214;19.354;2024-02-21T01:29:04;98374.72;;;6.01;59.10
40285;BME280;25997;50.214;19.354;2024-02-21T01:32:07;98366.38;;;6.08;58.98
40285;BME280;25997;50.214;19.354;2024-02-21T01:35:09;98363.59;;;6.23;58.48
40285;BME280;25997;50.214;19.354;2024-02-21T01:38:14;98366.22;;;6.23;58.44
40285;BME280;25997;50.214;19.354;2024-02-21T01:41:16;98368.25;;;6.28;58.30
40285;BME280;25997;50.214;19.354;2024-02-21T01:44:18;98360.72;;;6.34;58.07
40285;BME280;25997;50.214;19.354;2024-02-21T01:47:21;98348.06;;;6.42;57.95
40285;BME280;25997;50.214;19.354;2024-02-21T01:50:24;98353.41;;;6.45;57.88
40285;BME280;25997;50.214;19.354;2024-02-21T01:53:30;98356.75;;;6.43;57.87
40285;BME280;25997;50.214;19.354;2024-02-21T01:56:33;98342.69;;;6.39;57.84
40285;BME280;25997;50.214;19.354;2024-02-21T01:59:36;98344.72;;;6.27;58.24
40285;BME280;25997;50.214;19.354;2024-02-21T02:02:39;98354.81;;;6.21;58.44
40285;BME280;25997;50.214;19.354;2024-02-21T02:05:44;98349.53;;;6.19;58.41
40285;BME280;25997;50.214;19.354;2024-02-21T02:08:48;98349.16;;;6.12;58.65
40285;BME280;25997;50.214;19.354;2024-02-21T02:11:51;98349.78;;;6.06;58.85
40285;BME280;25997;50.214;19.354;2024-02-21T02:14:58;98339.03;;;6.00;59.06
40285;BME280;25997;50.214;19.354;2024-02-21T02:18:00;98342.38;;;5.98;59.03
40285;BME280;25997;50.214;19.354;2024-02-21T02:21:05;98335.47;;;5.98;59.08
40285;BME280;25997;50.214;19.354;2024-02-21T02:24:13;98339.03;;;6.00;58.80
40285;BME280;25997;50.214;19.354;2024-02-21T02:27:16;98331.75;;;5.93;59.10
40285;BME280;25997;50.214;19.354;2024-02-21T02:30:18;98329.50;;;6.01;58.89
40285;BME280;25997;50.214;19.354;2024-02-21T02:33:21;98326.22;;;6.05;58.94
40285;BME280;25997;50.214;19.354;2024-02-21T02:36:23;98322.31;;;5.95;59.18
40285;BME280;25997;50.214;19.354;2024-02-21T02:39:27;98324.34;;;6.02;59.01
40285;BME280;25997;50.214;19.354;2024-02-21T02:42:29;98328.38;;;5.96;59.27
40285;BME280;25997;50.214;19.354;2024-02-21T02:45:32;98324.81;;;5.94;59.29
40285;BME280;25997;50.214;19.354;2024-02-21T02:48:35;98319.69;;;5.95;59.36
40285;BME280;25997;50.214;19.354;2024-02-21T02:51:41;98322.88;;;5.90;59.44
40285;BME280;25997;50.214;19.354;2024-02-21T02:54:45;98324.25;;;5.82;59.67
40285;BME280;25997;50.214;19.354;2024-02-21T02:57:52;98315.13;;;5.74;59.78
40285;BME280;25997;50.214;19.354;2024-02-21T03:00:55;98314.69;;;5.82;59.72
40285;BME280;25997;50.214;19.354;2024-02-21T03:03:57;98309.69;;;5.87;59.37
40285;BME280;25997;50.214;19.354;2024-02-21T03:06:59;98310.09;;;5.94;59.34
40285;BME280;25997;50.214;19.354;2024-02-21T03:10:05;98299.28;;;5.87;59.24
40285;BME280;25997;50.214;19.354;2024-02-21T03:13:07;98298.09;;;5.62;60.12
40285;BME280;25997;50.214;19.354;2024-02-21T03:16:09;98297.34;;;5.65;60.10
40285;BME280;25997;50.214;19.354;2024-02-21T03:19:12;98302.56;;;5.83;59.46
40285;BME280;25997;50.214;19.354;2024-02-21T03:22:14;98313.72;;;5.98;58.96
40285;BME280;25997;50.214;19.354;2024-02-21T03:25:18;98309.56;;;6.01;59.07
40285;BME280;25997;50.214;19.354;2024-02-21T03:28:21;98312.16;;;6.01;58.97
40285;BME280;25997;50.214;19.354;2024-02-21T03:31:23;98311.69;;;6.10;58.80
40285;BME280;25997;50.214;19.354;2024-02-21T03:34:25;98301.22;;;6.08;58.80
40285;BME280;25997;50.214;19.354;2024-02-21T03:37:28;98299.84;;;6.16;58.81
40285;BME280;25997;50.214;19.354;2024-02-21T03:40:32;98301.06;;;6.05;58.92
40285;BME280;25997;50.214;19.354;2024-02-21T03:43:34;98306.78;;;5.98;59.01
40285;BME280;25997;50.214;19.354;2024-02-21T03:46:36;98298.69;;;5.92;59.08
40285;BME280;25997;50.214;19.354;2024-02-21T03:49:39;98288.94;;;5.88;59.13
40285;BME280;25997;50.214;19.354;2024-02-21T03:52:41;98300.06;;;5.84;59.32
40285;BME280;25997;50.214;19.354;2024-02-21T03:55:45;98294.50;;;5.96;58.95
40285;BME280;25997;50.214;19.354;2024-02-21T03:58:47;98297.72;;;5.90;58.86
40285;BME280;25997;50.214;19.354;2024-02-21T04:01:51;98303.38;;;5.99;58.77
40285;BME280;25997;50.214;19.354;2024-02-21T04:04:54;98309.84;;;5.90;59.00
40285;BME280;25997;50.214;19.354;2024-02-21T04:07:56;98299.66;;;5.77;59.44
40285;BME280;25997;50.214;19.354;2024-02-21T04:11:00;98297.78;;;5.92;59.04
40285;BME280;25997;50.214;19.354;2024-02-21T04:14:02;98297.22;;;5.97;58.89
40285;BME280;25997;50.214;19.354;2024-02-21T04:17:05;98291.47;;;6.04;58.83
40285;BME280;25997;50.214;19.354;2024-02-21T04:20:14;98299.22;;;5.85;59.22
40285;BME280;25997;50.214;19.354;2024-02-21T04:23:17;98298.75;;;5.94;59.22
40285;BME280;25997;50.214;19.354;2024-02-21T04:26:20;98311.88;;;5.95;59.21
40285;BME280;25997;50.214;19.354;2024-02-21T04:29:23;98298.66;;;6.10;58.80
40285;BME280;25997;50.214;19.354;2024-02-21T04:32:25;98293.25;;;6.05;58.70
40285;BME280;25997;50.214;19.354;2024-02-21T04:35:28;98298.59;;;6.08;58.64
40285;BME280;25997;50.214;19.354;2024-02-21T04:38:31;98291.00;;;6.13;58.29
40285;BME280;25997;50.214;19.354;2024-02-21T04:41:34;98284.16;;;6.15;58.03
40285;BME280;25997;50.214;19.354;2024-02-21T04:44:37;98283.94;;;6.10;58.06
40285;BME280;25997;50.214;19.354;2024-02-21T04:47:40;98294.81;;;6.02;58.34
40285;BME280;25997;50.214;19.354;2024-02-21T04:50:42;98286.84;;;5.99;58.47
40285;BME280;25997;50.214;19.354;2024-02-21T04:53:45;98282.44;;;5.98;58.48
40285;BME280;25997;50.214;19.354;2024-02-21T04:56:49;98280.84;;;6.00;58.37
40285;BME280;25997;50.214;19.354;2024-02-21T04:59:51;98280.72;;;5.98;58.33
40285;BME280;25997;50.214;19.354;2024-02-21T05:02:54;98271.91;;;5.95;58.21
40285;BME280;25997;50.214;19.354;2024-02-21T05:05:56;98279.72;;;5.95;58.47
40285;BME280;25997;50.214;19.354;2024-02-21T05:08:59;98273.97;;;6.02;58.35
40285;BME280;25997;50.214;19.354;2024-02-21T05:12:03;98272.66;;;6.11;58.13
40285;BME280;25997;50.214;19.354;2024-02-21T05:15:06;98275.44;;;6.14;57.98
40285;BME280;25997;50.214;19.354;2024-02-21T05:18:09;98267.41;;;6.10;57.98
40285;BME280;25997;50.214;19.354;2024-02-21T05:21:11;98265.53;;;6.07;58.01
40285;BME280;25997;50.214;19.354;2024-02-21T05:24:14;98255.56;;;5.99;58.26
40285;BME280;25997;50.214;19.354;2024-02-21T05:27:17;98252.38;;;5.87;58.66
40285;BME280;25997;50.214;19.354;2024-02-21T05:30:20;98246.13;;;5.83;58.61
40285;BME280;25997;50.214;19.354;2024-02-21T05:33:22;98253.22;;;5.86;58.40
40285;BME280;25997;50.214;19.354;2024-02-21T05:36:24;98254.84;;;5.84;58.18
40285;BME280;25997;50.214;19.354;2024-02-21T05:39:29;98257.03;;;5.75;58.47
40285;BME280;25997;50.214;19.354;2024-02-21T05:42:32;98249.66;;;5.66;58.63
40285;BME280;25997;50.214;19.354;2024-02-21T05:45:35;98253.81;;;5.62;58.65
40285;BME280;25997;50.214;19.354;2024-02-21T05:48:38;98255.38;;;5.59;58.93
40285;BME280;25997;50.214;19.354;2024-02-21T05:51:40;98255.97;;;5.53;59.33
40285;BME280;25997;50.214;19.354;2024-02-21T05:54:43;98250.34;;;5.62;59.20
40285;BME280;25997;50.214;19.354;2024-02-21T05:57:46;98252.16;;;5.64;59.21
40285;BME280;25997;50.214;19.354;2024-02-21T06:00:49;98244.44;;;5.66;59.45
40285;BME280;25997;50.214;19.354;2024-02-21T06:03:51;98239.16;;;5.64;59.62
40285;BME280;25997;50.214;19.354;2024-02-21T06:06:54;98250.75;;;5.71;59.51
40285;BME280;25997;50.214;19.354;2024-02-21T06:09:56;98244.78;;;5.74;59.40
40285;BME280;25997;50.214;19.354;2024-02-21T06:13:00;98249.16;;;5.73;59.66
40285;BME280;25997;50.214;19.354;2024-02-21T06:16:04;98249.25;;;5.76;59.48
40285;BME280;25997;50.214;19.354;2024-02-21T06:19:06;98244.78;;;5.74;59.81
40285;BME280;25997;50.214;19.354;2024-02-21T06:22:09;98250.31;;;5.80;59.83
40285;BME280;25997;50.214;19.354;2024-02-21T06:25:11;98246.34;;;5.88;59.76
40285;BME280;25997;50.214;19.354;2024-02-21T06:28:15;98247.09;;;5.85;59.97
40285;BME280;25997;50.214;19.354;2024-02-21T06:31:17;98247.53;;;5.94;59.84
40285;BME280;25997;50.214;19.354;2024-02-21T06:34:19;98244.34;;;6.00;59.83
40285;BME280;25997;50.214;19.354;2024-02-21T06:37:22;98245.31;;;6.02;59.63
40285;BME280;25997;50.214;19.354;2024-02-21T06:40:25;98244.63;;;6.06;59.58
40285;BME280;25997;50.214;19.354;2024-02-21T06:43:29;98237.97;;;6.12;59.69
40285;BME280;25997;50.214;19.354;2024-02-21T06:46:31;98245.31;;;6.21;59.51
40285;BME280;25997;50.214;19.354;2024-02-21T06:49:34;98238.38;;;6.39;59.28
40285;BME280;25997;50.214;19.354;2024-02-21T06:52:37;98244.28;;;6.35;59.56
40285;BME280;25997;50.214;19.354;2024-02-21T06:55:40;98244.72;;;6.44;59.41
40285;BME280;25997;50.214;19.354;2024-02-21T06:58:43;98243.78;;;6.63;59.20
40285;BME280;25997;50.214;19.354;2024-02-21T07:01:46;98249.75;;;6.60;58.62
40285;BME280;25997;50.214;19.354;2024-02-21T07:04:49;98247.56;;;6.50;59.12
40285;BME280;25997;50.214;19.354;2024-02-21T07:07:51;98243.53;;;6.57;59.08
40285;BME280;25997;50.214;19.354;2024-02-21T07:10:54;98236.38;;;6.33;59.03
40285;BME280;25997;50.214;19.354;2024-02-21T07:13:58;98246.81;;;6.33;59.05
40285;BME280;25997;50.214;19.354;2024-02-21T07:17:00;98244.81;;;6.28;59.22
40285;BME280;25997;50.214;19.354;2024-02-21T07:20:03;98245.03;;;6.52;58.53
40285;BME280;25997;50.214;19.354;2024-02-21T07:23:05;98243.38;;;6.54;58.38
40285;BME280;25997;50.214;19.354;2024-02-21T07:26:08;98232.94;;;6.54;58.28
40285;BME280;25997;50.214;19.354;2024-02-21T07:29:12;98242.78;;;6.59;58.19
40285;BME280;25997;50.214;19.354;2024-02-21T07:32:14;98255.47;;;6.71;58.21
40285;BME280;25997;50.214;19.354;2024-02-21T07:35:17;98243.94;;;6.66;58.10
40285;BME280;25997;50.214;19.354;2024-02-21T07:38:19;98243.38;;;6.73;58.05
40285;BME280;25997;50.214;19.354;2024-02-21T07:41:22;98241.13;;;6.61;58.10
40285;BME280;25997;50.214;19.354;2024-02-21T07:44:25;98232.25;;;6.77;58.16
40285;BME280;25997;50.214;19.354;2024-02-21T07:47:28;98233.25;;;6.80;57.86
40285;BME280;25997;50.214;19.354;2024-02-21T07:50:30;98228.81;;;6.78;57.70
40285;BME280;25997;50.214;19.354;2024-02-21T07:53:33;98227.50;;;6.87;57.37
40285;BME280;25997;50.214;19.354;2024-02-21T07:56:35;98227.09;;;6.78;57.25
40285;BME280;25997;50.214;19.354;2024-02-21T07:59:39;98229.78;;;6.80;57.36
40285;BME280;25997;50.214;19.354;2024-02-21T08:02:41;98236.84;;;6.82;57.46
40285;BME280;25997;50.214;19.354;2024-02-21T08:05:44;98228.13;;;6.82;57.31
40285;BME280;25997;50.214;19.354;2024-02-21T08:08:47;98222.22;;;6.86;57.19
40285;BME280;25997;50.214;19.354;2024-02-21T08:11:49;98209.03;;;6.83;57.26
40285;BME280;25997;50.214;19.354;2024-02-21T08:14:53;98203.13;;;7.07;57.04
40285;BME280;25997;50.214;19.354;2024-02-21T08:17:55;98203.06;;;7.27;56.33
40285;BME280;25997;50.214;19.354;2024-02-21T08:21:00;98204.84;;;7.28;56.58
40285;BME280;25997;50.214;19.354;2024-02-21T08:24:03;98200.72;;;7.33;55.97
40285;BME280;25997;50.214;19.354;2024-02-21T08:27:05;98200.16;;;7.19;56.64
40285;BME280;25997;50.214;19.354;2024-02-21T08:30:10;98194.50;;;7.51;56.44
40285;BME280;25997;50.214;19.354;2024-02-21T08:33:13;98177.06;;;7.30;56.37
40285;BME280;25997;50.214;19.354;2024-02-21T08:36:19;98185.25;;;7.17;56.51
40285;BME280;25997;50.214;19.354;2024-02-21T08:39:21;98182.63;;;7.17;56.84
40285;BME280;25997;50.214;19.354;2024-02-21T08:42:23;98178.72;;;7.48;56.27
40285;BME280;25997;50.214;19.354;2024-02-21T08:45:27;98165.72;;;7.70;56.15
40285;BME280;25997;50.214;19.354;2024-02-21T08:48:29;98175.13;;;7.67;55.71
40285;BME280;25997;50.214;19.354;2024-02-21T08:51:32;98177.22;;;7.33;56.03
40285;BME280;25997;50.214;19.354;2024-02-21T08:54:34;98167.81;;;7.38;55.93
40285;BME280;25997;50.214;19.354;2024-02-21T08:57:37;98169.41;;;7.55;55.66
40285;BME280;25997;50.214;19.354;2024-02-21T09:00:40;98168.78;;;7.82;55.36
40285;BME280;25997;50.214;19.354;2024-02-21T09:03:43;98174.47;;;8.17;54.86
40285;BME280;25997;50.214;19.354;2024-02-21T09:06:47;98179.03;;;8.46;54.52
40285;BME280;25997;50.214;19.354;2024-02-21T09:09:49;98167.56;;;8.42;54.29
40285;BME280;25997;50.214;19.354;2024-02-21T09:12:51;98164.16;;;7.98;54.51
40285;BME280;25997;50.214;19.354;2024-02-21T09:15:55;98168.06;;;8.09;54.30
40285;BME280;25997;50.214;19.354;2024-02-21T09:18:58;98169.25;;;8.17;54.27
40285;BME280;25997;50.214;19.354;2024-02-21T09:22:01;98166.63;;;8.17;54.20
40285;BME280;25997;50.214;19.354;2024-02-21T09:25:04;98162.78;;;8.54;53.76
40285;BME280;25997;50.214;19.354;2024-02-21T09:28:07;98161.56;;;8.69;53.38
40285;BME280;25997;50.214;19.354;2024-02-21T09:31:11;98148.31;;;8.40;52.57
40285;BME280;25997;50.214;19.354;2024-02-21T09:34:13;98164.00;;;8.64;52.48
40285;BME280;25997;50.214;19.354;2024-02-21T09:37:16;98160.81;;;8.49;53.04
40285;BME280;25997;50.214;19.354;2024-02-21T09:40:18;98155.91;;;8.82;52.51
40285;BME280;25997;50.214;19.354;2024-02-21T09:43:20;98162.78;;;8.54;52.38
40285;BME280;25997;50.214;19.354;2024-02-21T09:49:48;98153.34;;;8.83;52.48
40285;BME280;25997;50.214;19.354;2024-02-21T09:52:51;98172.28;;;9.00;52.02
40285;BME280;25997;50.214;19.354;2024-02-21T09:55:55;98153.72;;;8.94;52.33
40285;BME280;25997;50.214;19.354;2024-02-21T09:58:57;98168.09;;;9.32;51.55
40285;BME280;25997;50.214;19.354;2024-02-21T10:02:02;98154.19;;;9.61;50.80
40285;BME280;25997;50.214;19.354;2024-02-21T10:05:05;98152.69;;;9.69;50.48
40285;BME280;25997;50.214;19.354;2024-02-21T10:08:14;98159.72;;;9.42;49.88
40285;BME280;25997;50.214;19.354;2024-02-21T10:11:22;98169.97;;;9.36;49.54
40285;BME280;25997;50.214;19.354;2024-02-21T10:14:25;98162.13;;;9.36;50.28
40285;BME280;25997;50.214;19.354;2024-02-21T10:17:29;98144.50;;;9.58;50.09
40285;BME280;25997;50.214;19.354;2024-02-21T10:20:31;98154.66;;;9.48;50.08
40285;BME280;25997;50.214;19.354;2024-02-21T10:23:44;98138.56;;;9.64;49.41
40285;BME280;25997;50.214;19.354;2024-02-21T10:26:46;98145.22;;;10.09;49.79
40285;BME280;25997;50.214;19.354;2024-02-21T10:29:49;98153.53;;;9.96;49.39
40285;BME280;25997;50.214;19.354;2024-02-21T10:32:55;98145.31;;;10.12;49.35
40285;BME280;25997;50.214;19.354;2024-02-21T10:36:06;98140.78;;;9.78;48.50
40285;BME280;25997;50.214;19.354;2024-02-21T10:39:10;98152.63;;;9.94;49.56
40285;BME280;25997;50.214;19.354;2024-02-21T10:42:12;98151.00;;;9.97;49.08
40285;BME280;25997;50.214;19.354;2024-02-21T10:45:16;98133.28;;;9.90;49.15
40285;BME280;25997;50.214;19.354;2024-02-21T10:48:24;98140.59;;;9.72;49.07
40285;BME280;25997;50.214;19.354;2024-02-21T10:51:33;98141.84;;;9.57;49.35
40285;BME280;25997;50.214;19.354;2024-02-21T10:54:44;98139.19;;;9.28;49.22
40285;BME280;25997;50.214;19.354;2024-02-21T10:57:48;98119.78;;;9.22;49.12
40285;BME280;25997;50.214;19.354;2024-02-21T11:00:50;98110.25;;;9.52;49.59
40285;BME280;25997;50.214;19.354;2024-02-21T11:03:56;98110.06;;;9.74;49.03
40285;BME280;25997;50.214;19.354;2024-02-21T11:07:00;98101.81;;;9.34;49.30
40285;BME280;25997;50.214;19.354;2024-02-21T11:10:05;98099.22;;;9.92;49.59
40285;BME280;25997;50.214;19.354;2024-02-21T11:13:09;98095.13;;;10.31;48.57
40285;BME280;25997;50.214;19.354;2024-02-21T11:16:12;98092.19;;;10.85;48.18
40285;BME280;25997;50.214;19.354;2024-02-21T11:19:26;98093.47;;;11.00;45.88
40285;BME280;25997;50.214;19.354;2024-02-21T11:22:28;98091.69;;;10.32;46.69
40285;BME280;25997;50.214;19.354;2024-02-21T11:25:33;98082.47;;;10.15;47.04
40285;BME280;25997;50.214;19.354;2024-02-21T11:28:36;98081.69;;;10.19;47.23
40285;BME280;25997;50.214;19.354;2024-02-21T11:31:39;98083.06;;;10.38;46.66
40285;BME280;25997;50.214;19.354;2024-02-21T11:34:54;98072.78;;;10.14;45.57
40285;BME280;25997;50.214;19.354;2024-02-21T11:38:07;98069.00;;;10.05;45.80
40285;BME280;25997;50.214;19.354;2024-02-21T11:41:10;98080.69;;;10.16;46.23
40285;BME280;25997;50.214;19.354;2024-02-21T11:44:12;98056.47;;;10.24;46.05
40285;BME280;25997;50.214;19.354;2024-02-21T11:47:18;98066.78;;;10.18;46.48
40285;BME280;25997;50.214;19.354;2024-02-21T11:50:22;98060.75;;;9.91;47.00
40285;BME280;25997;50.214;19.354;2024-02-21T11:53:25;98059.78;;;9.89;46.54
40285;BME280;25997;50.214;19.354;2024-02-21T11:56:31;98047.06;;;10.02;47.09
40285;BME280;25997;50.214;19.354;2024-02-21T11:59:35;98053.44;;;9.81;47.41
40285;BME280;25997;50.214;19.354;2024-02-21T12:02:37;98055.75;;;9.70;46.83
40285;BME280;25997;50.214;19.354;2024-02-21T12:05:42;98052.47;;;9.77;47.33
40285;BME280;25997;50.214;19.354;2024-02-21T12:08:45;98051.09;;;9.90;47.39
40285;BME280;25997;50.214;19.354;2024-02-21T12:11:57;98048.78;;;9.71;46.36
40285;BME280;25997;50.214;19.354;2024-02-21T12:15:00;98039.75;;;9.61;47.06
40285;BME280;25997;50.214;19.354;2024-02-21T12:18:05;98048.00;;;9.45;46.53
40285;BME280;25997;50.214;19.354;2024-02-21T12:21:09;98037.66;;;9.50;46.65
40285;BME280;25997;50.214;19.354;2024-02-21T12:24:13;98044.91;;;9.88;46.60
40285;BME280;25997;50.214;19.354;2024-02-21T12:27:16;98043.25;;;9.34;46.90
40285;BME280;25997;50.214;19.354;2024-02-21T12:30:19;98053.16;;;9.72;46.92
40285;BME280;25997;50.214;19.354;2024-02-21T12:33:21;98044.19;;;9.36;47.19
40285;BME280;25997;50.214;19.354;2024-02-21T12:36:25;98034.00;;;9.45;47.25
40285;BME280;25997;50.214;19.354;2024-02-21T12:39:28;98023.34;;;9.10;47.69
40285;BME280;25997;50.214;19.354;2024-02-21T12:42:30;98025.25;;;9.16;48.08
40285;BME280;25997;50.214;19.354;2024-02-21T12:45:33;98028.97;;;8.96;49.24
40285;BME280;25997;50.214;19.354;2024-02-21T12:48:35;98022.56;;;9.13;49.11
40285;BME280;25997;50.214;19.354;2024-02-21T12:51:39;98013.47;;;9.30;49.33
40285;BME280;25997;50.214;19.354;2024-02-21T12:54:43;98015.69;;;9.18;49.27
40285;BME280;25997;50.214;19.354;2024-02-21T12:57:45;98015.69;;;8.90;50.15
40285;BME280;25997;50.214;19.354;2024-02-21T13:00:47;98013.00;;;8.62;51.29
40285;BME280;25997;50.214;19.354;2024-02-21T13:03:50;98016.13;;;8.51;50.63
40285;BME280;25997;50.214;19.354;2024-02-21T13:06:54;98006.38;;;8.46;50.81
40285;BME280;25997;50.214;19.354;2024-02-21T13:09:56;98011.53;;;8.44;51.03
40285;BME280;25997;50.214;19.354;2024-02-21T13:12:59;98009.13;;;8.50;51.47
40285;BME280;25997;50.214;19.354;2024-02-21T13:16:01;98015.63;;;8.36;53.20
40285;BME280;25997;50.214;19.354;2024-02-21T13:19:04;98001.72;;;8.37;53.16
40285;BME280;25997;50.214;19.354;2024-02-21T13:22:08;98007.38;;;8.24;53.92
40285;BME280;25997;50.214;19.354;2024-02-21T13:25:10;98002.00;;;7.96;55.01
40285;BME280;25997;50.214;19.354;2024-02-21T13:28:16;97987.94;;;7.93;55.46
40285;BME280;25997;50.214;19.354;2024-02-21T13:31:18;97988.59;;;8.11;55.00
40285;BME280;25997;50.214;19.354;2024-02-21T13:34:21;97991.09;;;8.08;55.30
40285;BME280;25997;50.214;19.354;2024-02-21T13:37:24;97987.72;;;7.64;56.37
40285;BME280;25997;50.214;19.354;2024-02-21T13:40:27;97987.84;;;7.66;56.51
40285;BME280;25997;50.214;19.354;2024-02-21T13:43:30;97974.66;;;7.87;55.80
40285;BME280;25997;50.214;19.354;2024-02-21T13:46:33;97975.97;;;7.99;56.07
40285;BME280;25997;50.214;19.354;2024-02-21T13:49:35;97975.34;;;8.06;55.85
40285;BME280;25997;50.214;19.354;2024-02-21T13:52:39;97967.88;;;8.17;55.73
40285;BME280;25997;50.214;19.354;2024-02-21T13:55:41;97961.59;;;7.87;56.33
40285;BME280;25997;50.214;19.354;2024-02-21T13:58:44;97958.09;;;7.86;56.05
40285;BME280;25997;50.214;19.354;2024-02-21T14:01:47;97958.44;;;7.97;55.75
40285;BME280;25997;50.214;19.354;2024-02-21T14:04:49;97966.59;;;8.06;55.52
40285;BME280;25997;50.214;19.354;2024-02-21T14:07:53;97963.03;;;8.29;55.35
40285;BME280;25997;50.214;19.354;2024-02-21T14:10:55;97956.63;;;8.19;55.47
40285;BME280;25997;50.214;19.354;2024-02-21T14:14:00;97952.34;;;8.21;55.63
40285;BME280;25997;50.214;19.354;2024-02-21T14:17:03;97953.69;;;8.10;56.05
40285;BME280;25997;50.214;19.354;2024-02-21T14:20:06;97948.81;;;7.96;56.42
40285;BME280;25997;50.214;19.354;2024-02-21T14:23:10;97944.22;;;7.89;56.81
40285;BME280;25997;50.214;19.354;2024-02-21T14:26:14;97946.59;;;8.06;56.53
40285;BME280;25997;50.214;19.354;2024-02-21T14:29:16;97943.81;;;8.02;57.07
40285;BME280;25997;50.214;19.354;2024-02-21T14:32:19;97933.72;;;8.12;57.05
40285;BME280;25997;50.214;19.354;2024-02-21T14:35:22;97920.94;;;8.21;57.05
40285;BME280;25997;50.214;19.354;2024-02-21T14:38:26;97927.44;;;8.07;57.32
40285;BME280;25997;50.214;19.354;2024-02-21T14:41:28;97906.63;;;7.61;58.24
40285;BME280;25997;50.214;19.354;2024-02-21T14:44:31;97902.75;;;7.74;58.69
40285;BME280;25997;50.214;19.354;2024-02-21T14:47:33;97898.84;;;7.63;58.84
40285;BME280;25997;50.214;19.354;2024-02-21T14:50:36;97889.88;;;7.55;58.84
40285;BME280;25997;50.214;19.354;2024-02-21T14:53:39;97897.81;;;7.81;57.79
40285;BME280;25997;50.214;19.354;2024-02-21T14:56:42;97892.47;;;7.78;57.77
40285;BME280;25997;50.214;19.354;2024-02-21T14:59:44;97880.69;;;7.42;58.58
40285;BME280;25997;50.214;19.354;2024-02-21T15:02:46;97871.91;;;7.64;57.91
40285;BME280;25997;50.214;19.354;2024-02-21T15:05:49;97875.38;;;7.88;57.53
40285;BME280;25997;50.214;19.354;2024-02-21T15:08:53;97876.91;;;7.81;57.15
40285;BME280;25997;50.214;19.354;2024-02-21T15:11:55;97883.53;;;7.72;57.43
40285;BME280;25997;50.214;19.354;2024-02-21T15:14:57;97891.69;;;7.81;57.32
40285;BME280;25997;50.214;19.354;2024-02-21T15:18:00;97884.72;;;7.58;58.01
40285;BME280;25997;50.214;19.354;2024-02-21T15:21:03;97871.91;;;7.64;57.80
40285;BME280;25997;50.214;19.354;2024-02-21T15:24:07;97883.97;;;7.84;57.50
40285;BME280;25997;50.214;19.354;2024-02-21T15:27:09;97885.13;;;7.94;57.31
40285;BME280;25997;50.214;19.354;2024-02-21T15:30:13;97889.38;;;7.90;57.14
40285;BME280;25997;50.214;19.354;2024-02-21T15:33:15;97888.72;;;7.70;57.33
40285;BME280;25997;50.214;19.354;2024-02-21T15:36:18;97879.03;;;7.93;56.82
40285;BME280;25997;50.214;19.354;2024-02-21T15:39:22;97876.81;;;7.55;57.50
40285;BME280;25997;50.214;19.354;2024-02-21T15:42:28;97877.56;;;7.76;56.78
40285;BME280;25997;50.214;19.354;2024-02-21T15:45:32;97893.06;;;7.95;56.09
40285;BME280;25997;50.214;19.354;2024-02-21T15:48:36;97873.31;;;8.05;56.04
40285;BME280;25997;50.214;19.354;2024-02-21T15:51:39;97865.75;;;7.87;56.15
40285;BME280;25997;50.214;19.354;2024-02-21T15:54:43;97854.06;;;8.03;55.82
40285;BME280;25997;50.214;19.354;2024-02-21T15:57:45;97848.31;;;7.86;56.06
40285;BME280;25997;50.214;19.354;2024-02-21T16:00:48;97842.06;;;7.82;55.97
40285;BME280;25997;50.214;19.354;2024-02-21T16:03:51;97843.91;;;7.85;56.04
40285;BME280;25997;50.214;19.354;2024-02-21T16:06:59;97856.31;;;7.91;55.76
40285;BME280;25997;50.214;19.354;2024-02-21T16:10:03;97858.06;;;7.92;55.60
40285;BME280;25997;50.214;19.354;2024-02-21T16:13:06;97851.25;;;7.97;55.67